Time;durP1;ratioP1;P1;durP2;ratioP2;P2;SDS_P1;SDS_P2;PMS_P1;PMS_P2;Temp;Humidity;BMP_temperature;BMP_pressure;BME280_temperature;BME280_humidity;BME280_pressure;Samples;Min_cycle;Max_cycle;Signal;HPM_P1;HPM_P2
2022/03/12 00:01:12;;;;;;;5.30;2.70;;;;;;;-6.09;60.91;100278.62;104797;1273;74252;-31
2022/03/12 00:03:42;;;;;;;4.30;1.60;;;;;;;-6.03;60.65;100278.83;104894;1271;61128;-31
2022/03/12 00:06:11;;;;;;;4.00;1.90;;;;;;;-6.03;60.21;100272.91;105071;1274;61988;-31
2022/03/12 00:08:43;;;;;;;3.00;1.20;;;;;;;-6.00;59.70;100276.48;105115;1274;73710;-28
2022/03/12 00:11:40;;;;;;;5.30;1.70;;;;;;;-6.00;59.86;100267.67;105087;1272;76056;-33
2022/03/12 00:14:11;;;;;;;2.70;1.40;;;;;;;-6.00;59.85;100267.34;104986;1272;74307;-32
2022/03/12 00:16:42;;;;;;;6.00;1.30;;;;;;;-6.02;59.86;100261.77;105098;1272;61139;-29
2022/03/12 00:19:11;;;;;;;2.40;1.30;;;;;;;-6.03;60.08;100262.44;105115;1274;61936;-32
2022/03/12 00:21:42;;;;;;;3.80;1.60;;;;;;;-6.07;60.73;100264.94;104987;1274;74782;-31
2022/03/12 00:24:14;;;;;;;2.50;1.20;;;;;;;-6.14;61.64;100268.78;104630;1272;74970;-29
2022/03/12 00:26:46;;;;;;;1.90;0.90;;;;;;;-6.19;62.05;100267.74;104981;1272;74439;-29
2022/03/12 00:29:15;;;;;;;5.70;1.00;;;;;;;-6.21;62.66;100265.37;104626;1273;62104;-29
2022/03/12 00:31:45;;;;;;;1.50;1.00;;;;;;;-6.27;63.54;100263.64;104828;1271;62351;-29
2022/03/12 00:34:14;;;;;;;3.10;1.10;;;;;;;-6.32;64.40;100265.63;104638;1274;74964;-29
2022/03/12 00:36:44;;;;;;;1.60;1.00;;;;;;;-6.37;65.25;100266.09;104909;1271;76043;-29
2022/03/12 00:39:14;;;;;;;7.00;1.20;;;;;;;-6.41;65.91;100263.36;105115;1272;74312;-29
2022/03/12 00:41:44;;;;;;;2.60;0.90;;;;;;;-6.44;66.38;100259.45;105106;1271;62100;-29
2022/03/12 00:44:17;;;;;;;2.60;1.00;;;;;;;-6.49;67.06;100256.04;105026;1273;61948;-29
2022/03/12 00:46:47;;;;;;;2.90;1.30;;;;;;;-6.52;66.93;100255.34;104019;1273;1002601;-29
2022/03/12 00:49:17;;;;;;;3.20;1.30;;;;;;;-6.56;67.30;100254.96;105124;1271;74233;-29
2022/03/12 00:51:48;;;;;;;2.70;1.50;;;;;;;-6.59;67.78;100256.45;104854;1272;74268;-29
2022/03/12 00:54:17;;;;;;;3.70;1.40;;;;;;;-6.59;67.84;100253.76;104905;1271;62240;-29
2022/03/12 00:56:47;;;;;;;5.80;1.30;;;;;;;-5.96;65.97;100255.16;105160;1271;61144;-29
2022/03/12 00:59:17;;;;;;;2.40;1.00;;;;;;;-4.93;61.24;100251.11;105015;1273;74471;-29
2022/03/12 01:01:46;;;;;;;5.10;1.10;;;;;;;-4.48;59.88;100248.59;105145;1273;75972;-29
2022/03/12 01:04:15;;;;;;;3.10;0.90;;;;;;;-4.50;60.15;100250.30;105032;1273;73421;-29
2022/03/12 01:06:45;;;;;;;3.60;1.10;;;;;;;-4.68;60.77;100247.41;104927;1273;61173;-29
2022/03/12 01:09:14;;;;;;;4.40;1.40;;;;;;;-4.94;61.21;100245.86;104836;1272;61979;-29
2022/03/12 01:11:46;;;;;;;3.90;1.20;;;;;;;-5.18;61.60;100241.08;105139;1272;75441;-29
2022/03/12 01:14:17;;;;;;;8.40;1.20;;;;;;;-5.37;61.95;100236.30;105134;1271;73761;-29
2022/03/12 01:16:46;;;;;;;1.10;0.80;;;;;;;-5.54;63.03;100238.43;104929;1271;74469;-29
2022/03/12 01:19:15;;;;;;;3.00;0.90;;;;;;;-5.70;62.96;100237.02;105035;1271;61829;-29
2022/03/12 01:21:45;;;;;;;8.00;1.90;;;;;;;-5.83;63.37;100238.31;104951;1271;61858;-28
2022/03/12 01:24:13;;;;;;;4.30;1.90;;;;;;;-5.93;63.23;100240.13;104083;1271;1003849;-29
2022/03/12 01:26:43;;;;;;;4.40;1.60;;;;;;;-6.01;63.45;100240.45;104724;1273;74820;-29
2022/03/12 01:29:12;;;;;;;2.30;0.90;;;;;;;-6.05;63.13;100232.82;104892;1271;74369;-29
2022/03/12 01:31:41;;;;;;;2.30;1.40;;;;;;;-6.11;64.09;100230.27;104915;1271;61059;-29
2022/03/12 01:34:11;;;;;;;2.80;1.70;;;;;;;-6.17;65.31;100234.96;104812;1271;61328;-29
2022/03/12 01:36:40;;;;;;;2.30;1.30;;;;;;;-6.18;66.01;100235.80;104992;1271;75294;-29
2022/03/12 01:39:08;;;;;;;1.70;1.00;;;;;;;-6.21;65.44;100231.05;105134;1271;74978;-29
2022/03/12 01:41:42;;;;;;;2.00;1.10;;;;;;;-6.20;65.74;100224.98;105035;1271;73149;-29
2022/03/12 01:44:14;;;;;;;2.70;1.40;;;;;;;-6.25;66.27;100219.20;104916;1272;61082;-28
2022/03/12 01:46:45;;;;;;;2.50;1.10;;;;;;;-6.28;65.69;100216.30;104766;1271;61114;-28
2022/03/12 01:49:23;;;;;;;5.60;1.70;;;;;;;-6.30;65.42;100213.91;104800;1271;75529;-29
2022/03/12 01:51:53;;;;;;;2.20;1.20;;;;;;;-6.30;65.48;100212.23;104783;1271;75989;-30
2022/03/12 01:54:26;;;;;;;3.70;1.40;;;;;;;-6.31;65.75;100215.77;105099;1271;74415;-28
2022/03/12 01:56:56;;;;;;;2.20;1.00;;;;;;;-6.34;66.30;100216.59;104873;1271;61218;-30
2022/03/12 01:59:25;;;;;;;4.70;1.40;;;;;;;-6.41;66.46;100214.52;104887;1271;61811;-28
2022/03/12 02:01:56;;;;;;;4.30;1.20;;;;;;;-6.46;66.37;100213.98;105028;1271;75694;-30
2022/03/12 02:04:29;;;;;;;3.20;0.80;;;;;;;-6.50;66.85;100214.96;104905;1271;75237;-29
2022/03/12 02:07:00;;;;;;;1.50;1.00;;;;;;;-6.55;66.72;100211.38;104901;1271;74436;-30
2022/03/12 02:09:42;;;;;;;2.90;1.10;;;;;;;-6.57;66.87;100214.23;104962;1271;61170;-30
2022/03/12 02:12:11;;;;;;;2.10;1.10;;;;;;;-6.59;66.86;100213.20;104936;1271;61865;-31
2022/03/12 02:14:40;;;;;;;0.90;0.80;;;;;;;-6.60;66.93;100212.02;104805;1271;74748;-31
2022/03/12 02:17:12;;;;;;;2.20;1.10;;;;;;;-6.61;66.97;100213.70;104950;1271;74441;-30
2022/03/12 02:19:41;;;;;;;1.90;1.30;;;;;;;-6.64;67.39;100210.82;104890;1271;73686;-28
2022/03/12 02:22:14;;;;;;;1.90;0.80;;;;;;;-6.66;66.93;100207.59;104940;1271;61090;-30
2022/03/12 02:24:43;;;;;;;;;;;;;;;-6.69;67.32;100204.52;104759;1274;62052;-28
2022/03/12 02:27:12;;;;;;;1.20;0.90;;;;;;;-6.73;67.53;100205.35;104967;1271;74328;-28
2022/03/12 02:29:41;;;;;;;1.30;1.00;;;;;;;-6.80;67.47;100204.27;105050;1271;75095;-28
2022/03/12 02:32:13;;;;;;;1.60;0.80;;;;;;;-6.34;66.70;100207.62;104842;1271;74192;-28
2022/03/12 02:34:44;;;;;;;2.10;1.30;;;;;;;-5.39;64.20;100209.70;104962;1271;61251;-29
2022/03/12 02:37:38;;;;;;;1.60;0.90;;;;;;;-5.05;62.08;100212.64;105097;1271;61930;-30
2022/03/12 02:40:09;;;;;;;3.60;1.30;;;;;;;-5.16;61.29;100211.12;105127;1272;75329;-30
2022/03/12 02:42:39;;;;;;;2.10;0.80;;;;;;;-5.37;61.72;100208.36;105100;1272;73878;-29
2022/03/12 02:45:10;;;;;;;1.70;1.10;;;;;;;-5.62;62.19;100210.83;104898;1274;73398;-29
2022/03/12 02:47:40;;;;;;;2.10;0.80;;;;;;;-5.83;62.69;100207.02;105150;1273;62137;-29
2022/03/12 02:50:14;;;;;;;0.90;0.90;;;;;;;-6.05;63.68;100207.45;104741;1273;61026;-29
2022/03/12 02:52:44;;;;;;;2.60;1.10;;;;;;;-6.25;64.49;100208.70;104967;1271;75460;-28
2022/03/12 02:55:17;;;;;;;1.80;1.10;;;;;;;-6.42;65.41;100208.43;105188;1271;76042;-28
2022/03/12 02:57:47;;;;;;;;;;;;;;;-6.55;65.73;100208.34;104899;1271;74180;-29
2022/03/12 03:00:18;;;;;;;1.40;1.00;;;;;;;-6.64;66.34;100202.53;104972;1273;61144;-28
2022/03/12 03:02:53;;;;;;;2.30;1.40;;;;;;;-6.74;66.73;100205.84;104859;1271;61860;-28
2022/03/12 03:05:36;;;;;;;1.20;0.80;;;;;;;-6.81;67.10;100202.58;105148;1272;75361;-28
2022/03/12 03:08:09;;;;;;;4.00;1.00;;;;;;;-6.87;67.57;100203.20;105147;1273;76097;-28
2022/03/12 03:10:39;;;;;;;1.30;1.00;;;;;;;-6.93;67.63;100201.97;104659;1271;74548;-29
2022/03/12 03:13:20;;;;;;;3.50;1.20;;;;;;;-7.00;68.24;100201.74;104742;1271;61099;-28
2022/03/12 03:16:00;;;;;;;2.60;1.20;;;;;;;-6.99;68.47;100198.86;105067;1274;62735;-29
2022/03/12 03:18:31;;;;;;;3.30;0.90;;;;;;;-6.36;67.16;100201.18;104905;1274;74483;-29
2022/03/12 03:21:02;;;;;;;1.40;1.10;;;;;;;-5.53;64.32;100199.84;104902;1272;75729;-29
2022/03/12 03:23:33;;;;;;;1.70;0.90;;;;;;;-5.38;62.82;100198.20;105063;1271;73425;-29
2022/03/12 03:26:03;;;;;;;1.30;0.80;;;;;;;-5.53;63.20;100195.96;104946;1273;61135;-29
2022/03/12 03:28:35;;;;;;;2.30;1.50;;;;;;;-5.76;63.48;100195.38;104879;1273;62078;-29
2022/03/12 03:31:07;;;;;;;2.60;1.30;;;;;;;-6.00;64.13;100190.89;105186;1271;74357;-29
2022/03/12 03:33:36;;;;;;;1.50;1.10;;;;;;;-6.21;64.96;100188.61;105106;1271;75344;-29
2022/03/12 03:36:06;;;;;;;2.20;1.00;;;;;;;-6.42;65.71;100188.84;104805;1271;74950;-31
2022/03/12 03:38:35;;;;;;;2.00;1.30;;;;;;;-6.59;66.36;100187.20;104833;1271;61189;-29
2022/03/12 03:41:04;;;;;;;2.70;1.80;;;;;;;-6.74;66.88;100185.08;104810;1273;62112;-29
2022/03/12 03:43:33;;;;;;;5.30;1.70;;;;;;;-6.86;67.40;100183.29;104818;1271;75569;-29
2022/03/12 03:46:02;;;;;;;2.60;1.60;;;;;;;-6.98;68.01;100182.67;104830;1271;75987;-29
2022/03/12 03:48:37;;;;;;;2.70;1.60;;;;;;;-7.09;68.21;100176.34;105117;1271;74514;-28
2022/03/12 03:51:06;;;;;;;4.00;1.10;;;;;;;-7.18;68.56;100178.45;105103;1274;61142;-28
2022/03/12 03:53:35;;;;;;;2.80;0.70;;;;;;;-7.12;68.82;100174.80;105130;1274;62120;-29
2022/03/12 03:56:04;;;;;;;4.00;1.60;;;;;;;-6.26;66.70;100181.82;105122;1273;75884;-29
2022/03/12 03:58:34;;;;;;;7.00;2.20;;;;;;;-5.65;64.66;100178.32;105169;1271;75924;-29
2022/03/12 04:01:25;;;;;;;4.10;2.50;;;;;;;-5.60;63.92;100176.99;105115;1274;74430;-29
2022/03/12 04:04:01;;;;;;;5.60;2.60;;;;;;;-5.80;64.10;100179.80;105126;1271;61335;-29
2022/03/12 04:06:32;;;;;;;5.90;1.40;;;;;;;-6.02;64.38;100180.73;105128;1274;61217;-29
2022/03/12 04:09:01;;;;;;;5.90;1.80;;;;;;;-6.27;64.92;100178.27;105060;1273;75563;-29
2022/03/12 04:11:33;;;;;;;5.60;2.50;;;;;;;-6.49;65.75;100176.95;105153;1271;75707;-28
2022/03/12 04:14:02;;;;;;;2.10;1.40;;;;;;;-6.68;66.62;100169.39;104998;1271;74419;-30
2022/03/12 04:16:36;;;;;;;2.20;1.70;;;;;;;-6.83;67.15;100170.98;104819;1271;61159;-29
2022/03/12 04:19:06;;;;;;;2.90;1.90;;;;;;;-6.94;67.62;100172.08;104702;1273;61074;-29
2022/03/12 04:21:36;;;;;;;3.10;1.80;;;;;;;-7.03;68.20;100173.67;104789;1273;73607;-29
2022/03/12 04:24:25;;;;;;;8.40;2.30;;;;;;;-7.14;68.56;100177.66;104907;1271;76166;-29
2022/03/12 04:26:54;;;;;;;3.30;1.50;;;;;;;-7.21;68.97;100174.20;104818;1271;74657;-29
2022/03/12 04:29:23;;;;;;;2.30;0.90;;;;;;;-7.18;69.29;100174.06;104841;1271;62556;-29
2022/03/12 04:31:53;;;;;;;2.60;1.30;;;;;;;-6.38;68.05;100177.00;104815;1271;61010;-30
2022/03/12 04:34:22;;;;;;;2.10;1.30;;;;;;;-5.62;65.93;100178.52;104820;1271;75554;-29
2022/03/12 04:36:51;;;;;;;3.70;1.70;;;;;;;-5.51;64.84;100172.95;104846;1273;74994;-29
2022/03/12 04:39:20;;;;;;;2.10;1.20;;;;;;;-5.66;64.89;100174.44;104887;1271;73415;-29
2022/03/12 04:41:49;;;;;;;4.10;1.60;;;;;;;-5.84;65.37;100174.05;105059;1272;61275;-29
2022/03/12 04:44:20;;;;;;;3.60;1.50;;;;;;;-5.99;65.49;100175.86;104915;1271;61878;-29
2022/03/12 04:46:49;;;;;;;3.50;1.70;;;;;;;-6.10;66.41;100175.30;104750;1274;75483;-29
2022/03/12 04:49:20;;;;;;;3.50;1.80;;;;;;;-6.17;66.67;100179.49;104776;1271;74852;-29
2022/03/12 04:51:52;;;;;;;5.10;1.80;;;;;;;-6.20;66.78;100180.69;104809;1271;73367;-29
2022/03/12 04:54:21;;;;;;;3.60;1.40;;;;;;;-6.26;66.92;100179.29;104810;1271;61816;-29
2022/03/12 04:56:50;;;;;;;5.20;2.40;;;;;;;-6.35;67.42;100177.38;104735;1273;61874;-29
2022/03/12 04:59:19;;;;;;;3.00;1.60;;;;;;;-6.46;67.64;100177.82;104913;1271;75564;-29
2022/03/12 05:01:48;;;;;;;3.00;1.90;;;;;;;-6.57;68.11;100178.75;104857;1271;75255;-29
2022/03/12 05:04:18;;;;;;;4.30;2.00;;;;;;;-6.66;68.31;100175.66;104821;1271;74643;-29
2022/03/12 05:06:47;;;;;;;4.20;2.30;;;;;;;-6.73;69.22;100179.50;104785;1272;61112;-29
2022/03/12 05:09:16;;;;;;;2.40;1.80;;;;;;;-6.75;69.31;100177.95;104824;1271;61913;-29
2022/03/12 05:11:46;;;;;;;4.40;1.90;;;;;;;-6.76;69.67;100179.48;104935;1274;73418;-29
2022/03/12 05:14:17;;;;;;;4.00;1.90;;;;;;;-6.75;69.87;100177.28;104863;1271;74799;-29
2022/03/12 05:16:46;;;;;;;4.50;1.90;;;;;;;-6.73;70.24;100177.98;104796;1271;73187;-29
2022/03/12 05:19:17;;;;;;;8.90;2.50;;;;;;;-6.70;70.13;100177.83;104809;1271;61125;-29
2022/03/12 05:21:47;;;;;;;6.00;2.50;;;;;;;-6.66;70.81;100182.60;104810;1271;62092;-29
2022/03/12 05:24:16;;;;;;;2.90;1.30;;;;;;;-6.61;70.60;100178.90;104907;1271;75503;-29
2022/03/12 05:26:45;;;;;;;3.10;2.30;;;;;;;-6.53;70.55;100176.09;105144;1271;75007;-29
2022/03/12 05:29:15;;;;;;;3.80;2.10;;;;;;;-6.44;70.46;100182.73;105100;1271;74374;-29
2022/03/12 05:31:45;;;;;;;9.70;3.00;;;;;;;-6.33;70.55;100181.11;105154;1271;62121;-29
2022/03/12 05:34:14;;;;;;;2.70;1.20;;;;;;;-6.18;70.86;100182.38;105168;1271;62651;-29
2022/03/12 05:36:43;;;;;;;3.10;1.40;;;;;;;-5.37;69.11;100179.40;104988;1271;75512;-28
2022/03/12 05:39:12;;;;;;;4.50;2.20;;;;;;;-4.27;66.13;100183.61;104970;1271;76012;-29
2022/03/12 05:41:44;;;;;;;4.00;2.40;;;;;;;-3.79;63.87;100182.96;104837;1272;74377;-29
2022/03/12 05:44:14;;;;;;;6.50;2.60;;;;;;;-3.76;62.45;100184.81;104786;1272;61121;-30
2022/03/12 05:46:44;;;;;;;3.60;2.00;;;;;;;-3.88;60.95;100177.56;105009;1271;61965;-31
2022/03/12 05:49:13;;;;;;;6.60;3.10;;;;;;;-4.00;61.73;100180.48;104987;1271;75996;-28
2022/03/12 05:51:42;;;;;;;4.40;1.70;;;;;;;-4.06;61.59;100177.80;105112;1271;76011;-29
2022/03/12 05:54:13;;;;;;;4.20;1.60;;;;;;;-4.08;62.31;100171.70;105064;1271;74566;-30
2022/03/12 05:56:42;;;;;;;3.10;2.00;;;;;;;-4.12;62.05;100168.33;105158;1271;62126;-32
2022/03/12 05:59:11;;;;;;;5.10;2.00;;;;;;;-4.15;61.50;100168.67;105137;1271;61944;-31
2022/03/12 06:01:40;;;;;;;3.10;1.60;;;;;;;-4.16;60.48;100166.12;105197;1271;74605;-31
2022/03/12 06:04:11;;;;;;;5.40;3.00;;;;;;;-4.09;61.19;100168.30;105148;1271;75973;-28
2022/03/12 06:06:45;;;;;;;2.80;1.70;;;;;;;-4.03;60.52;100166.42;104754;1271;73606;-28
2022/03/12 06:09:14;;;;;;;7.20;3.00;;;;;;;-3.98;60.79;100168.78;104779;1272;62063;-28
2022/03/12 06:11:45;;;;;;;6.20;3.30;;;;;;;-3.97;61.32;100165.38;105095;1272;61786;-29
2022/03/12 06:14:15;;;;;;;7.90;3.70;;;;;;;-3.98;60.05;100168.45;104926;1271;74636;-30
2022/03/12 06:16:47;;;;;;;7.80;3.90;;;;;;;-3.96;60.92;100166.39;104829;1274;76162;-28
2022/03/12 06:19:21;;;;;;;2.70;1.70;;;;;;;-3.94;60.68;100166.05;105014;1271;74574;-28
2022/03/12 06:21:50;;;;;;;6.50;2.90;;;;;;;-3.90;59.38;100163.14;104877;1274;61400;-30
2022/03/12 06:24:20;;;;;;;6.40;3.60;;;;;;;-3.95;59.92;100165.04;105075;1271;61152;-29
2022/03/12 06:26:49;;;;;;;6.80;2.80;;;;;;;-3.90;60.05;100159.59;105118;1271;74591;-29
2022/03/12 06:29:18;;;;;;;6.70;2.80;;;;;;;-3.88;59.86;100158.39;105085;1271;76075;-29
2022/03/12 06:31:47;;;;;;;6.00;3.10;;;;;;;-3.78;59.68;100153.59;105139;1271;74515;-29
2022/03/12 06:34:17;;;;;;;7.70;3.80;;;;;;;-3.71;58.71;100153.90;104950;1271;61155;-29
2022/03/12 06:36:46;;;;;;;4.30;2.70;;;;;;;-3.77;58.78;100140.17;104855;1272;62305;-29
2022/03/12 06:39:15;;;;;;;6.20;4.00;;;;;;;-3.73;59.19;100152.04;104825;1271;75607;-29
2022/03/12 06:41:45;;;;;;;6.30;3.20;;;;;;;-3.51;59.35;100157.18;105151;1271;76025;-29
2022/03/12 06:44:16;;;;;;;7.30;3.10;;;;;;;-3.32;58.41;100149.08;104947;1271;74194;-29
2022/03/12 06:46:45;;;;;;;7.10;2.90;;;;;;;-3.24;58.07;100146.30;104835;1271;61157;-29
2022/03/12 06:49:15;;;;;;;7.50;3.50;;;;;;;-3.14;56.25;100146.41;104895;1271;61402;-29
2022/03/12 06:51:44;;;;;;;5.20;2.80;;;;;;;-3.05;55.67;100144.46;105110;1271;75440;-29
2022/03/12 06:54:13;;;;;;;6.10;3.20;;;;;;;-3.00;55.01;100141.02;104857;1271;73907;-29
2022/03/12 06:56:42;;;;;;;9.70;3.20;;;;;;;-2.98;54.94;100146.45;104952;1271;74450;-29
2022/03/12 06:59:11;;;;;;;4.90;2.40;;;;;;;-2.91;54.57;100142.14;104725;1274;62256;-29
2022/03/12 07:01:40;;;;;;;4.40;2.40;;;;;;;-2.73;54.78;100149.81;104804;1271;61155;-30
2022/03/12 07:04:11;;;;;;;4.50;3.00;;;;;;;-2.62;53.70;100146.13;104939;1271;73636;-28
2022/03/12 07:06:40;;;;;;;7.00;3.20;;;;;;;-2.48;53.90;100148.21;105028;1271;75985;-29
2022/03/12 07:09:09;;;;;;;3.90;2.60;;;;;;;-2.34;52.81;100145.52;104771;1271;73425;-28
2022/03/12 07:11:39;;;;;;;6.10;3.00;;;;;;;-2.45;52.85;100135.94;104767;1271;61142;-28
2022/03/12 07:14:08;;;;;;;6.50;3.30;;;;;;;-2.39;52.62;100140.46;105079;1271;62023;-28
2022/03/12 07:16:39;;;;;;;22.40;3.10;;;;;;;-2.21;51.84;100141.63;104911;1274;75747;-28
2022/03/12 07:19:08;;;;;;;4.00;2.70;;;;;;;-1.98;51.20;100137.95;104988;1271;74991;-28
2022/03/12 07:21:38;;;;;;;6.70;3.10;;;;;;;-1.79;51.08;100133.27;105086;1271;74603;-29
2022/03/12 07:24:08;;;;;;;5.60;2.20;;;;;;;-1.86;50.86;100130.66;105124;1271;61050;-29
2022/03/12 07:26:39;;;;;;;4.90;2.20;;;;;;;-1.71;50.84;100129.45;104833;1271;61075;-29
2022/03/12 07:29:09;;;;;;;4.90;2.00;;;;;;;-1.74;49.68;100126.24;105033;1272;75604;-29
2022/03/12 07:31:39;;;;;;;5.70;3.00;;;;;;;-1.78;49.69;100127.49;104968;1274;75984;-29
2022/03/12 07:34:09;;;;;;;6.20;2.80;;;;;;;-1.86;49.60;100127.61;104897;1274;74444;-29
2022/03/12 07:36:38;;;;;;;3.10;2.10;;;;;;;-1.85;49.52;100128.77;105110;1271;61703;-28
2022/03/12 07:39:07;;;;;;;7.10;2.60;;;;;;;-1.62;49.68;100124.36;105114;1273;62303;-29
2022/03/12 07:41:37;;;;;;;2.40;1.80;;;;;;;-1.48;49.54;100124.02;105139;1271;75707;-29
2022/03/12 07:44:07;;;;;;;5.50;2.90;;;;;;;-1.23;48.75;100116.13;104974;1271;76225;-29
2022/03/12 07:46:36;;;;;;;7.30;3.80;;;;;;;-1.17;48.69;100115.34;104824;1274;74368;-29
2022/03/12 07:49:06;;;;;;;6.90;3.20;;;;;;;-1.15;49.21;100113.29;104797;1271;61128;-29
2022/03/12 07:51:35;;;;;;;6.70;3.90;;;;;;;-0.99;48.60;100112.87;104829;1271;62105;-29
2022/03/12 07:54:07;;;;;;;5.70;2.30;;;;;;;-0.71;48.08;100118.67;104873;1271;74620;-29
2022/03/12 07:56:38;;;;;;;7.00;2.90;;;;;;;-0.63;45.42;100104.91;104912;1271;76079;-29
2022/03/12 07:59:07;;;;;;;9.50;3.30;;;;;;;-0.71;44.31;100103.84;104843;1274;74253;-29
2022/03/12 08:01:37;;;;;;;5.10;2.70;;;;;;;-0.64;44.78;100109.86;105002;1271;61114;-29
2022/03/12 08:04:06;;;;;;;4.80;2.70;;;;;;;-0.71;44.50;100098.05;105052;1274;61146;-29
2022/03/12 08:06:36;;;;;;;6.30;2.80;;;;;;;-0.61;44.23;100094.45;105084;1271;75773;-29
2022/03/12 08:09:06;;;;;;;4.80;2.90;;;;;;;-0.65;44.87;100108.00;104979;1271;75109;-29
2022/03/12 08:11:35;;;;;;;6.40;3.00;;;;;;;-0.63;45.73;100095.16;105076;1272;72344;-29
2022/03/12 08:14:09;;;;;;;4.50;2.50;;;;;;;-0.46;44.48;100080.85;105111;1271;61046;-29
2022/03/12 08:16:41;;;;;;;5.30;2.90;;;;;;;-0.43;45.11;100092.41;105119;1274;61118;-30
2022/03/12 08:19:11;;;;;;;7.50;3.30;;;;;;;-0.53;45.10;100092.44;105151;1271;75489;-29
2022/03/12 08:21:41;;;;;;;4.50;2.70;;;;;;;-0.56;45.69;100095.37;105020;1271;76872;-29
2022/03/12 08:24:15;;;;;;;4.40;3.20;;;;;;;-0.38;45.87;100089.23;105110;1273;74226;-29
2022/03/12 08:26:45;;;;;;;5.50;2.80;;;;;;;-0.56;46.26;100091.46;105119;1271;61282;-29
2022/03/12 08:29:15;;;;;;;4.50;2.70;;;;;;;-0.44;45.80;100081.86;105131;1271;61277;-30
2022/03/12 08:31:44;;;;;;;4.00;2.60;;;;;;;-0.54;46.23;100080.67;105129;1271;73917;-29
2022/03/12 08:34:16;;;;;;;6.80;3.50;;;;;;;-0.34;46.28;100087.13;105099;1271;75919;-29
2022/03/12 08:36:47;;;;;;;5.70;2.70;;;;;;;-0.15;46.98;100090.15;105039;1271;74359;-29
2022/03/12 08:39:16;;;;;;;4.60;2.40;;;;;;;0.01;45.34;100074.11;104505;1271;344949;-29
2022/03/12 08:41:45;;;;;;;4.80;2.10;;;;;;;0.14;45.34;100079.46;104944;1271;61148;-29
2022/03/12 08:44:16;;;;;;;4.70;2.30;;;;;;;0.26;44.11;100072.20;104813;1271;75584;-29
2022/03/12 08:46:46;;;;;;;4.00;2.30;;;;;;;0.44;42.92;100071.95;105059;1271;76085;-29
2022/03/12 08:49:19;;;;;;;5.60;2.40;;;;;;;0.45;39.77;100066.30;105141;1271;73403;-29
2022/03/12 08:51:49;;;;;;;4.90;2.60;;;;;;;0.46;39.03;100062.86;105105;1272;61030;-29
2022/03/12 08:54:18;;;;;;;4.50;2.20;;;;;;;0.43;38.35;100054.57;105095;1271;62048;-33
2022/03/12 08:56:48;;;;;;;4.00;2.50;;;;;;;0.33;38.40;100047.80;105134;1271;75528;-30
2022/03/12 08:59:17;;;;;;;2.50;1.80;;;;;;;0.29;38.47;100046.34;104901;1271;75811;-30
2022/03/12 09:01:47;;;;;;;3.40;1.80;;;;;;;0.46;38.63;100057.38;104889;1271;74563;-30
2022/03/12 09:04:17;;;;;;;5.70;2.10;;;;;;;0.57;38.60;100051.66;105078;1271;61050;-30
2022/03/12 09:06:59;;;;;;;4.00;2.30;;;;;;;0.66;39.20;100051.98;104912;1271;61036;-29
2022/03/12 09:09:28;;;;;;;3.60;2.50;;;;;;;0.56;38.20;100047.95;105151;1271;75461;-29
2022/03/12 09:12:17;;;;;;;4.40;2.10;;;;;;;0.73;38.43;100050.77;105041;1271;76105;-30
2022/03/12 09:14:49;;;;;;;4.80;2.30;;;;;;;0.57;38.04;100037.30;105146;1271;73397;-29
2022/03/12 09:17:18;;;;;;;3.40;2.40;;;;;;;0.60;37.98;100037.59;105141;1271;61157;-30
2022/03/12 09:19:49;;;;;;;5.60;2.70;;;;;;;0.55;38.95;100039.06;105123;1271;61792;-30
2022/03/12 09:22:19;;;;;;;4.60;2.70;;;;;;;0.48;38.71;100038.90;105021;1272;75551;-29
2022/03/12 09:24:48;;;;;;;4.50;2.70;;;;;;;0.58;38.04;100044.80;105118;1271;74490;-29
2022/03/12 09:27:17;;;;;;;7.30;2.30;;;;;;;0.92;39.18;100040.38;104895;1271;74464;-29
2022/03/12 09:29:47;;;;;;;4.90;2.40;;;;;;;1.24;39.06;100030.30;105094;1271;61058;-29
2022/03/12 09:32:16;;;;;;;4.10;2.50;;;;;;;1.02;39.60;100031.74;105132;1271;62027;-29
2022/03/12 09:34:45;;;;;;;5.60;2.80;;;;;;;1.07;38.65;100028.85;105146;1271;75365;-29
2022/03/12 09:37:18;;;;;;;4.50;2.90;;;;;;;1.07;37.71;100020.48;104973;1271;76006;-29
2022/03/12 09:39:48;;;;;;;2.30;1.80;;;;;;;1.24;38.23;100031.65;105115;1271;74499;-29
2022/03/12 09:42:17;;;;;;;3.60;2.10;;;;;;;1.64;37.18;100018.41;105006;1271;61150;-29
2022/03/12 09:44:46;;;;;;;3.50;2.10;;;;;;;1.64;37.23;100017.56;104646;1274;61829;-29
2022/03/12 09:47:17;;;;;;;4.30;2.40;;;;;;;1.48;36.72;100012.35;105038;1271;75340;-29
2022/03/12 09:49:46;;;;;;;4.30;2.80;;;;;;;1.40;36.69;100014.63;105128;1271;74725;-28
2022/03/12 09:52:17;;;;;;;4.20;2.20;;;;;;;1.37;37.51;100007.19;105053;1271;74375;-29
2022/03/12 09:54:49;;;;;;;6.70;2.50;;;;;;;2.10;37.01;100015.51;105047;1271;61326;-29
2022/03/12 09:57:18;;;;;;;4.50;2.10;;;;;;;2.43;35.67;100005.58;105099;1271;61698;-29
2022/03/12 09:59:48;;;;;;;4.80;2.70;;;;;;;2.18;34.80;100001.72;104921;1271;76269;-29
2022/03/12 10:02:17;;;;;;;5.30;2.30;;;;;;;1.76;35.21;99992.91;104968;1271;74306;-29
2022/03/12 10:04:46;;;;;;;5.80;2.60;;;;;;;2.01;36.06;99988.89;104995;1271;72433;-29
2022/03/12 10:07:17;;;;;;;4.50;2.50;;;;;;;2.03;35.80;99986.08;105011;1271;61347;-29
2022/03/12 10:09:46;;;;;;;3.30;1.90;;;;;;;1.99;35.57;99985.55;105116;1271;61783;-29
2022/03/12 10:12:15;;;;;;;4.50;2.20;;;;;;;1.92;35.40;99992.77;105164;1271;75542;-29
2022/03/12 10:14:44;;;;;;;2.50;1.70;;;;;;;2.09;34.09;99979.39;105014;1271;75976;-29
2022/03/12 10:17:14;;;;;;;3.40;2.10;;;;;;;1.95;34.00;99990.11;104755;1271;73277;-29
2022/03/12 10:19:47;;;;;;;2.90;1.90;;;;;;;1.96;33.55;99980.30;105066;1271;61661;-29
2022/03/12 10:22:16;;;;;;;3.50;2.30;;;;;;;1.82;33.60;99991.50;105032;1274;62243;-29
2022/03/12 10:24:45;;;;;;;3.50;2.10;;;;;;;1.97;34.43;99993.45;105179;1271;75272;-29
2022/03/12 10:27:20;;;;;;;3.50;2.20;;;;;;;2.24;34.29;99980.12;105104;1271;76404;-29
2022/03/12 10:29:49;;;;;;;2.60;2.00;;;;;;;2.11;34.07;99968.04;104903;1271;74461;-29
2022/03/12 10:32:23;;;;;;;5.00;2.20;;;;;;;2.20;34.21;99977.50;104684;1274;61045;-29
2022/03/12 10:34:56;;;;;;;3.10;2.00;;;;;;;2.35;34.26;99983.72;104918;1272;61359;-29
2022/03/12 10:37:27;;;;;;;4.60;2.60;;;;;;;2.32;34.19;99968.90;104998;1271;73488;-29
2022/03/12 10:40:03;;;;;;;5.20;2.70;;;;;;;2.12;33.96;99964.23;104856;1271;75801;-29
2022/03/12 10:42:33;;;;;;;5.10;2.60;;;;;;;2.21;34.03;99961.89;104796;1271;74868;-29
2022/03/12 10:45:10;;;;;;;5.50;2.40;;;;;;;2.06;33.52;99958.58;104906;1274;61600;-29
2022/03/12 10:47:40;;;;;;;4.50;2.70;;;;;;;2.19;34.07;99944.29;104757;1271;61184;-29
2022/03/12 10:50:17;;;;;;;4.30;2.90;;;;;;;2.15;34.11;99948.88;104949;1271;75632;-29
2022/03/12 10:52:49;;;;;;;6.20;3.10;;;;;;;2.38;33.05;99942.98;104903;1271;75767;-29
2022/03/12 10:55:23;;;;;;;5.20;3.30;;;;;;;2.67;32.07;99954.04;104740;1271;74630;-30
2022/03/12 10:58:12;;;;;;;4.50;3.00;;;;;;;2.93;31.40;99941.47;104603;1273;61107;-29
2022/03/12 11:00:51;;;;;;;7.70;4.00;;;;;;;3.14;31.70;99940.36;104734;1273;62029;-29
2022/03/12 11:03:24;;;;;;;4.40;2.90;;;;;;;3.08;31.86;99936.30;105066;1272;75309;-30
2022/03/12 11:05:56;;;;;;;6.30;3.80;;;;;;;3.15;30.91;99925.07;104697;1273;76015;-29
2022/03/12 11:08:28;;;;;;;5.20;3.80;;;;;;;3.08;31.41;99937.52;104647;1271;74159;-29
2022/03/12 11:11:00;;;;;;;8.30;3.50;;;;;;;2.90;32.27;99924.92;104966;1271;61046;-29
2022/03/12 11:13:40;;;;;;;5.30;2.90;;;;;;;3.02;29.95;99928.09;104871;1271;61078;-29
2022/03/12 11:16:20;;;;;;;6.30;3.70;;;;;;;3.04;30.84;99927.87;105037;1273;74382;-29
2022/03/12 11:18:52;;;;;;;6.80;4.90;;;;;;;2.96;31.82;99908.61;105043;1272;74987;-29
2022/03/12 11:21:37;;;;;;;7.60;4.90;;;;;;;2.83;31.39;99910.09;104934;1273;74643;-29
2022/03/12 11:24:21;;;;;;;7.80;4.40;;;;;;;2.53;31.01;99918.16;105109;1271;61029;-29
2022/03/12 11:26:59;;;;;;;7.70;4.50;;;;;;;2.63;31.40;99900.31;105097;1271;61064;-28
2022/03/12 11:29:29;;;;;;;8.10;4.60;;;;;;;2.82;31.76;99913.91;105101;1271;75539;-29
2022/03/12 11:31:59;;;;;;;8.10;4.90;;;;;;;2.86;32.00;99908.61;104920;1271;75783;-29
2022/03/12 11:34:32;;;;;;;6.70;4.80;;;;;;;2.73;32.60;99903.59;104606;1273;73535;-29
2022/03/12 11:37:04;;;;;;;7.20;4.10;;;;;;;3.03;32.50;99911.77;104796;1272;61249;-28
2022/03/12 11:39:55;;;;;;;6.60;4.10;;;;;;;3.03;33.14;99904.74;105123;1271;61694;-29